Airfield :
LOGIN :

Register | Disclaimer

   EN    FR    IT 

 










Legend :    VFR   Marginal VFR   IFR   Intensive IFR   Very Intensive IFR
Visi :
Ceiling :
>= 8 km
>= 3000ft
5 to 8 km
1000 to 3000 ft
1500m to 5 km
500 to 1000 ft
800 to 1500m
200 to 500 ft
< 800m
< 200 ft
Symbols :   Thunderstorms  Fog  Heavy snow  Heavy precipitations  Wind > 20 kt
SIGMETs :     Misc.  Thunderstorms  Icing  Turbulence  Mountain Waves  Volcanic Ashes







- Airport Elevation : 74 ft
- IATA code : EIN


EHEH - Eindhoven

CURRENT METAR :
  • 171855Z AUTO 22004KT 200V260 9999 BKN210 03/01 Q1026 BLU 20003KT 9999 SCT045

EXPIRED METARs :
  • 171825Z AUTO 24003KT 240V300 9999 FEW037 BKN042 BKN049 04/02 Q1026 BLU 20003KT 9999 SCT045
  • 171755Z AUTO 25004KT 240V310 9999 BKN047 BKN230 05/03 Q1026 BLU 20003KT 9999 SCT045
  • 171725Z AUTO 22004KT 9999 OVC048 05/03 Q1026 BLU 20003KT 9999 SCT045
  • 171655Z AUTO 20004KT 9999 BKN048 BKN130 04/02 Q1026 BLU 20003KT 9999 SCT045
  • 171625Z AUTO 22004KT 9999 SCT048 05/03 Q1026 BLU 20003KT 9999 SCT045

TAF TAF EHEH
Valid from the 17 at 18:00 until the 19 at 00:00 UTC


171732Z 1718/1824 21002KT 9999 FEW040 SCT180
BECMG 1808/1811 25012G22KT
TEMPO 1813/1820 SCT015 SCT018CB BKN025
BECMG 1819/1821 28008KT
No reported NOTAMs for that airfield.



MET'MAP, your aeronautical weather chart ! - Copyright ORBIFLY December 2007 - Disclaimer

ORBIFLY MET'MAP TEAM :

Programming & Development : Alexandra Zaïnal
Concept & Development : Baudouin d'Aumeries
Co-Development & Prog : Marc-Olivier Méhu
Technical & hardware support : Manuel Goepfert

Contact : metmap@orbifly.com




SOURCES & CREDITS :

   NOAA